createdAt,value
2022-09-23T00:01:11.398Z,6.32
2022-09-23T00:03:42.868Z,5.78
2022-09-23T00:06:18.241Z,5.65
2022-09-23T00:08:50.099Z,6.15
2022-09-23T00:11:25.321Z,6.20
2022-09-23T00:13:57.633Z,6.15
2022-09-23T00:16:32.639Z,5.57
2022-09-23T00:19:00.838Z,6.40
2022-09-23T00:21:27.395Z,6.18
2022-09-23T00:23:53.969Z,6.30
2022-09-23T00:26:22.387Z,5.63
2022-09-23T00:28:52.949Z,5.97
2022-09-23T00:31:23.340Z,6.75
2022-09-23T00:33:57.751Z,5.90
2022-09-23T00:36:26.126Z,4.93
2022-09-23T00:38:53.844Z,5.75
2022-09-23T00:41:21.324Z,6.53
2022-09-23T00:43:54.401Z,5.13
2022-09-23T00:46:28.029Z,5.63
2022-09-23T00:49:06.470Z,6.10
2022-09-23T00:51:37.714Z,5.22
2022-09-23T00:54:05.399Z,5.82
2022-09-23T00:56:33.356Z,5.63
2022-09-23T00:59:01.056Z,6.25
2022-09-23T01:01:27.690Z,6.20
2022-09-23T01:03:57.133Z,5.18
2022-09-23T01:06:23.633Z,6.50
2022-09-23T01:08:50.700Z,5.65
2022-09-23T01:11:38.995Z,4.90
2022-09-23T01:14:40.428Z,5.07
2022-09-23T01:17:14.898Z,5.07
2022-09-23T01:19:59.492Z,4.88
2022-09-23T01:22:39.413Z,5.80
2022-09-23T01:25:33.552Z,5.57
2022-09-23T01:28:33.916Z,5.13
2022-09-23T01:31:32.434Z,6.15
2022-09-23T01:34:09.762Z,6.00
2022-09-23T01:36:42.441Z,5.35
2022-09-23T01:39:17.001Z,5.75
2022-09-23T01:42:13.394Z,6.03
2022-09-23T01:44:50.381Z,5.10
2022-09-23T01:47:26.491Z,5.63
2022-09-23T01:50:30.969Z,5.75
2022-09-23T01:53:12.876Z,5.10
2022-09-23T01:55:50.058Z,4.50
2022-09-23T01:58:49.350Z,4.97
2022-09-23T02:01:26.129Z,5.30
2022-09-23T02:04:17.465Z,5.82
2022-09-23T02:07:03.134Z,5.32
2022-09-23T02:09:37.552Z,4.90
2022-09-23T02:12:12.543Z,5.10
2022-09-23T02:14:46.704Z,4.78
2022-09-23T02:17:18.018Z,4.80
2022-09-23T02:19:53.735Z,5.53
2022-09-23T02:22:25.929Z,4.93
2022-09-23T02:24:54.633Z,5.57
2022-09-23T02:27:36.661Z,5.63
2022-09-23T02:30:20.403Z,5.68
2022-09-23T02:33:15.353Z,5.60
2022-09-23T02:35:44.722Z,5.20
2022-09-23T02:38:34.998Z,6.28
2022-09-23T02:41:04.687Z,4.75
2022-09-23T02:43:36.245Z,5.70
2022-09-23T02:46:04.811Z,6.05
2022-09-23T02:48:56.801Z,6.00
2022-09-23T02:51:27.920Z,5.68
2022-09-23T02:53:57.127Z,5.78
2022-09-23T02:56:24.349Z,5.78
2022-09-23T02:58:55.057Z,6.25
2022-09-23T03:01:40.129Z,6.63
2022-09-23T03:04:26.561Z,6.53
2022-09-23T03:07:10.957Z,5.82
2022-09-23T03:09:57.280Z,6.07
2022-09-23T03:12:38.315Z,7.03
2022-09-23T03:15:14.433Z,6.63
2022-09-23T03:17:57.482Z,6.50
2022-09-23T03:20:39.174Z,7.22
2022-09-23T03:23:12.438Z,6.15
2022-09-23T03:25:42.856Z,6.43
2022-09-23T03:28:10.915Z,6.43
2022-09-23T03:30:38.229Z,7.03
2022-09-23T03:33:09.242Z,6.30
2022-09-23T03:36:01.660Z,7.22
2022-09-23T03:38:34.058Z,6.95
2022-09-23T03:41:04.150Z,6.00
2022-09-23T03:43:31.479Z,7.30
2022-09-23T03:45:59.535Z,6.88
2022-09-23T03:48:26.235Z,6.13
2022-09-23T03:50:52.807Z,6.65
2022-09-23T03:53:20.986Z,5.80
2022-09-23T03:55:47.866Z,6.80
2022-09-23T03:58:14.471Z,7.03
2022-09-23T04:00:40.986Z,6.80
2022-09-23T04:03:11.590Z,6.43
2022-09-23T04:05:38.420Z,7.93
2022-09-23T04:08:04.817Z,7.03
2022-09-23T04:10:31.418Z,7.32
2022-09-23T04:12:57.841Z,6.55
2022-09-23T04:15:24.474Z,6.57
2022-09-23T04:17:51.200Z,6.65
2022-09-23T04:20:21.385Z,7.32
2022-09-23T04:22:47.851Z,7.05
2022-09-23T04:25:15.691Z,7.55
2022-09-23T04:27:42.273Z,7.40
2022-09-23T04:30:09.197Z,7.25
2022-09-23T04:32:35.631Z,5.80
2022-09-23T04:35:02.162Z,7.05
2022-09-23T04:37:29.410Z,6.53
2022-09-23T04:39:56.531Z,7.25
2022-09-23T04:42:23.075Z,7.32
2022-09-23T04:44:49.574Z,6.80
2022-09-23T04:47:16.081Z,7.85
2022-09-23T04:49:42.683Z,7.43
2022-09-23T04:52:09.062Z,6.93
2022-09-23T04:54:35.568Z,7.75
2022-09-23T04:57:01.961Z,7.22
2022-09-23T04:59:28.569Z,7.38
2022-09-23T05:01:55.373Z,7.30
2022-09-23T05:04:22.824Z,7.28
2022-09-23T05:06:49.398Z,8.50
2022-09-23T05:09:17.350Z,7.32
2022-09-23T05:11:45.816Z,7.32
2022-09-23T05:14:12.264Z,7.50
2022-09-23T05:16:38.742Z,6.75
2022-09-23T05:19:05.455Z,7.45
2022-09-23T05:21:32.201Z,7.05
2022-09-23T05:24:00.651Z,7.55
2022-09-23T05:26:30.583Z,7.30
2022-09-23T05:28:57.330Z,6.93
2022-09-23T05:31:29.270Z,6.50
2022-09-23T05:33:58.390Z,7.57
2022-09-23T05:36:26.356Z,6.97
2022-09-23T05:38:53.484Z,6.95
2022-09-23T05:41:23.032Z,7.35
2022-09-23T05:43:53.910Z,7.00
2022-09-23T05:46:26.229Z,7.45
2022-09-23T05:48:52.761Z,7.53
2022-09-23T05:51:21.681Z,7.40
2022-09-23T05:53:52.531Z,6.85
2022-09-23T05:56:22.762Z,7.30
2022-09-23T05:58:53.727Z,7.53
2022-09-23T06:01:25.492Z,7.50
2022-09-23T06:03:53.786Z,6.55
2022-09-23T06:06:28.339Z,6.45
2022-09-23T06:08:54.778Z,7.75
2022-09-23T06:11:21.452Z,7.03
2022-09-23T06:13:48.603Z,6.65
2022-09-23T06:16:25.133Z,6.63
2022-09-23T06:18:51.963Z,7.18
2022-09-23T06:21:21.366Z,6.85
2022-09-23T06:23:48.023Z,7.20
2022-09-23T06:26:15.781Z,7.35
2022-09-23T06:28:44.070Z,8.23
2022-09-23T06:31:15.467Z,6.53
2022-09-23T06:33:43.392Z,6.75
2022-09-23T06:36:11.544Z,5.95
2022-09-23T06:41:08.275Z,7.30
2022-09-23T06:43:34.876Z,7.25
2022-09-23T06:46:03.874Z,6.55
2022-09-23T06:48:35.153Z,7.70
2022-09-23T06:51:04.125Z,6.57
2022-09-23T06:53:34.883Z,6.82
2022-09-23T06:56:04.124Z,7.13
2022-09-23T06:58:32.256Z,7.15
2022-09-23T07:01:03.317Z,7.10
2022-09-23T07:03:31.678Z,7.97
2022-09-23T07:05:58.798Z,6.35
2022-09-23T07:08:27.245Z,6.45
2022-09-23T07:10:54.705Z,7.00
2022-09-23T07:13:21.604Z,7.05
2022-09-23T07:15:51.876Z,7.20
2022-09-23T07:18:22.069Z,7.72
2022-09-23T07:20:50.733Z,7.63
2022-09-23T07:23:20.068Z,7.35
2022-09-23T07:25:50.280Z,7.63
2022-09-23T07:28:17.070Z,6.25
2022-09-23T07:30:58.423Z,6.97
2022-09-23T07:33:32.303Z,7.32
2022-09-23T07:35:59.403Z,7.07
2022-09-23T07:38:30.417Z,6.85
2022-09-23T07:41:02.519Z,6.72
2022-09-23T07:43:31.836Z,7.30
2022-09-23T07:46:04.246Z,7.78
2022-09-23T07:48:34.272Z,7.70
2022-09-23T07:51:06.386Z,7.90
2022-09-23T07:53:33.309Z,6.82
2022-09-23T07:55:59.814Z,7.68
2022-09-23T07:58:26.322Z,7.43
2022-09-23T08:00:53.613Z,6.55
2022-09-23T08:03:20.762Z,7.15
2022-09-23T08:05:47.418Z,6.88
2022-09-23T08:08:14.100Z,7.40
2022-09-23T08:10:40.603Z,6.35
2022-09-23T08:13:07.061Z,6.13
2022-09-23T08:15:33.671Z,7.18
2022-09-23T08:18:00.447Z,6.43
2022-09-23T08:20:47.723Z,6.70
2022-09-23T08:23:20.443Z,7.13
2022-09-23T08:25:47.620Z,7.18
2022-09-23T08:28:21.754Z,7.25
2022-09-23T08:33:20.912Z,6.13
2022-09-23T08:38:20.342Z,6.70
2022-09-23T08:40:50.564Z,6.55
2022-09-23T08:43:29.427Z,6.57
2022-09-23T08:46:00.235Z,6.53
2022-09-23T08:48:50.227Z,7.20
2022-09-23T08:51:29.350Z,6.70
2022-09-23T08:53:56.008Z,6.45
2022-09-23T08:56:24.046Z,6.65
2022-09-23T09:01:53.566Z,6.43
2022-09-23T09:04:27.737Z,6.70
2022-09-23T09:09:54.334Z,6.25
2022-09-23T09:12:29.263Z,6.57
2022-09-23T09:15:12.683Z,6.88
2022-09-23T09:17:49.509Z,7.03
2022-09-23T09:20:18.997Z,6.43
2022-09-23T09:23:01.981Z,6.93
2022-09-23T09:25:50.246Z,7.28
2022-09-23T09:28:35.848Z,7.38
2022-09-23T09:31:37.895Z,6.90
2022-09-23T09:34:22.257Z,7.53
2022-09-23T09:37:07.192Z,6.65
2022-09-23T09:39:36.881Z,6.20
2022-09-23T09:42:07.082Z,6.20
2022-09-23T09:44:42.283Z,7.72
2022-09-23T09:47:40.717Z,6.68
2022-09-23T09:50:09.462Z,6.25
2022-09-23T09:52:42.802Z,6.78
2022-09-23T09:55:12.591Z,7.57
2022-09-23T09:57:46.296Z,6.20
2022-09-23T10:00:21.774Z,7.88
2022-09-23T10:02:58.997Z,6.80
2022-09-23T10:05:29.853Z,6.60
2022-09-23T10:07:56.841Z,6.30
2022-09-23T10:10:33.679Z,6.50
2022-09-23T10:13:14.591Z,6.43
2022-09-23T10:15:44.952Z,6.85
2022-09-23T10:18:20.798Z,6.13
2022-09-23T10:20:48.082Z,7.13
2022-09-23T10:23:26.978Z,6.32
2022-09-23T10:26:06.215Z,5.68
2022-09-23T10:29:01.749Z,6.45
2022-09-23T10:31:34.369Z,5.93
2022-09-23T10:34:03.472Z,6.95
2022-09-23T10:36:33.243Z,6.32
2022-09-23T10:39:23.889Z,6.03
2022-09-23T10:42:45.501Z,5.90
2022-09-23T10:45:39.747Z,6.13
2022-09-23T10:48:45.432Z,5.97
2022-09-23T10:51:35.221Z,5.70
2022-09-23T10:54:20.344Z,4.93
2022-09-23T10:57:00.187Z,6.13
2022-09-23T10:59:50.178Z,5.82
2022-09-23T11:02:22.757Z,5.15
2022-09-23T11:05:04.741Z,5.25
2022-09-23T11:07:51.223Z,5.30
2022-09-23T11:10:45.576Z,4.97
2022-09-23T11:13:43.086Z,5.43
2022-09-23T11:16:31.924Z,5.60
2022-09-23T11:19:21.867Z,5.72
2022-09-23T11:22:03.572Z,5.25
2022-09-23T11:24:58.000Z,5.50
2022-09-23T11:27:54.194Z,5.25
2022-09-23T11:30:21.453Z,5.38
2022-09-23T11:33:14.226Z,5.55
2022-09-23T11:35:59.121Z,5.25
2022-09-23T11:38:31.708Z,5.68
2022-09-23T11:41:03.880Z,5.25
2022-09-23T11:43:36.466Z,6.05
2022-09-23T11:46:10.334Z,6.15
2022-09-23T11:48:50.507Z,5.80
2022-09-23T11:53:54.607Z,5.28
2022-09-23T11:56:48.629Z,5.50
2022-09-23T11:59:50.282Z,5.75
2022-09-23T12:02:31.041Z,5.45
2022-09-23T12:05:03.734Z,5.32
2022-09-23T12:07:52.928Z,5.13
2022-09-23T12:10:21.226Z,5.25
2022-09-23T12:13:00.880Z,5.43
2022-09-23T12:15:51.181Z,5.20
2022-09-23T12:18:38.313Z,4.47
2022-09-23T12:21:45.724Z,5.38
2022-09-23T12:24:26.737Z,5.72
2022-09-23T12:26:58.913Z,6.65
2022-09-23T12:29:30.441Z,4.65
2022-09-23T12:31:56.889Z,5.57
2022-09-23T12:34:30.409Z,6.40
2022-09-23T12:37:06.449Z,6.40
2022-09-23T12:39:37.174Z,5.30
2022-09-23T12:42:06.547Z,5.13
2022-09-23T12:44:41.493Z,5.55
2022-09-23T12:47:28.154Z,5.25
2022-09-23T12:49:56.485Z,6.15
2022-09-23T12:52:25.030Z,6.28
2022-09-23T12:54:56.357Z,5.63
2022-09-23T12:57:34.970Z,6.28
2022-09-23T13:00:12.958Z,6.63
2022-09-23T13:02:41.396Z,6.22
2022-09-23T13:05:26.500Z,6.10
2022-09-23T13:08:00.459Z,6.60
2022-09-23T13:10:33.838Z,5.70
2022-09-23T13:13:02.497Z,5.82
2022-09-23T13:15:38.655Z,5.80
2022-09-23T13:18:20.518Z,5.63
2022-09-23T13:20:51.257Z,6.13
2022-09-23T13:23:35.916Z,5.95
2022-09-23T13:26:12.619Z,6.10
2022-09-23T13:28:57.193Z,6.05
2022-09-23T13:31:23.975Z,6.00
2022-09-23T13:33:59.678Z,5.45
2022-09-23T13:36:29.289Z,5.80
2022-09-23T13:39:15.219Z,5.82
2022-09-23T13:41:44.138Z,5.20
2022-09-23T13:44:20.704Z,4.95
2022-09-23T13:46:58.025Z,5.93
2022-09-23T13:49:28.365Z,5.32
2022-09-23T13:51:56.446Z,6.70
2022-09-23T13:54:50.673Z,5.72
2022-09-23T13:57:26.431Z,5.28
2022-09-23T13:59:53.649Z,5.47
2022-09-23T14:02:25.832Z,5.60
2022-09-23T14:04:52.743Z,5.82
2022-09-23T14:07:20.626Z,5.95
2022-09-23T14:12:22.178Z,5.30
2022-09-23T14:14:51.599Z,5.40
2022-09-23T14:17:24.138Z,5.43
2022-09-23T14:19:51.437Z,5.55
2022-09-23T14:22:27.003Z,6.28
2022-09-23T14:24:56.036Z,5.97
2022-09-23T14:27:33.766Z,6.25
2022-09-23T14:30:02.631Z,6.85
2022-09-23T14:32:30.252Z,6.97
2022-09-23T14:34:59.930Z,5.25
2022-09-23T14:37:52.963Z,5.90
2022-09-23T14:40:32.480Z,5.93
2022-09-23T14:43:18.016Z,5.25
2022-09-23T14:45:50.558Z,4.68
2022-09-23T14:48:22.977Z,6.00
2022-09-23T14:50:58.691Z,7.05
2022-09-23T14:53:40.656Z,6.78
2022-09-23T14:56:07.100Z,6.22
2022-09-23T14:58:52.010Z,6.72
2022-09-23T15:01:39.310Z,5.40
2022-09-23T15:04:35.596Z,6.30
2022-09-23T15:07:09.460Z,6.82
2022-09-23T15:09:39.346Z,7.18
2022-09-23T15:12:11.825Z,6.45
2022-09-23T15:14:46.506Z,6.40
2022-09-23T15:17:34.969Z,6.55
2022-09-23T15:20:34.736Z,6.25
2022-09-23T15:23:01.672Z,6.22
2022-09-23T15:25:40.761Z,6.35
2022-09-23T15:28:13.040Z,6.22
2022-09-23T15:30:39.623Z,6.30
2022-09-23T15:33:06.541Z,6.53
2022-09-23T15:35:33.280Z,6.60
2022-09-23T15:38:01.894Z,6.22
2022-09-23T15:40:34.002Z,5.80
2022-09-23T15:43:07.486Z,6.95
2022-09-23T15:45:37.031Z,5.75
2022-09-23T15:48:18.150Z,5.07
2022-09-23T15:50:46.605Z,5.55
2022-09-23T15:53:15.666Z,5.75
2022-09-23T15:55:42.160Z,5.57
2022-09-23T15:58:08.774Z,5.65
2022-09-23T16:00:36.481Z,5.70
2022-09-23T16:03:04.239Z,6.25
2022-09-23T16:05:36.719Z,6.45
2022-09-23T16:08:09.693Z,5.93
2022-09-23T16:10:37.714Z,6.68
2022-09-23T16:15:35.191Z,6.93
2022-09-23T16:18:01.718Z,8.60
2022-09-23T16:20:30.187Z,7.70
2022-09-23T16:23:01.271Z,7.53
2022-09-23T16:25:31.623Z,7.18
2022-09-23T16:27:58.461Z,8.55
2022-09-23T16:30:29.659Z,8.73
2022-09-23T16:32:57.028Z,8.40
2022-09-23T16:35:25.915Z,8.65
2022-09-23T16:37:52.863Z,9.07
2022-09-23T16:40:21.599Z,9.10
2022-09-23T16:42:49.844Z,9.23
2022-09-23T16:45:18.248Z,10.85
2022-09-23T16:47:46.481Z,9.93
2022-09-23T16:50:14.373Z,9.82
2022-09-23T16:52:41.880Z,9.40
2022-09-23T16:55:10.301Z,12.05
2022-09-23T16:57:38.269Z,10.55
2022-09-23T17:03:11.973Z,10.20
2022-09-23T17:05:38.441Z,10.48
2022-09-23T17:08:05.726Z,9.57
2022-09-23T17:10:32.940Z,9.82
2022-09-23T17:13:00.269Z,10.85
2022-09-23T17:15:26.861Z,11.27
2022-09-23T17:17:53.232Z,11.30
2022-09-23T17:20:22.772Z,11.57
2022-09-23T17:22:51.998Z,13.55
2022-09-23T17:25:20.869Z,13.00
2022-09-23T17:27:48.789Z,14.50
2022-09-23T17:34:21.109Z,14.43
2022-09-23T17:36:47.534Z,15.60
2022-09-23T17:39:14.111Z,14.40
2022-09-23T17:41:40.691Z,14.60
2022-09-23T17:44:10.961Z,15.50
2022-09-23T17:46:37.369Z,16.30
2022-09-23T17:49:04.040Z,16.58
2022-09-23T17:51:31.175Z,16.52
2022-09-23T17:53:57.778Z,16.23
2022-09-23T17:56:26.193Z,16.17
2022-09-23T17:58:53.860Z,14.48
2022-09-23T18:01:22.749Z,12.55
2022-09-23T18:03:55.008Z,11.52
2022-09-23T18:06:23.164Z,10.25
2022-09-23T18:08:53.201Z,10.05
2022-09-23T18:11:27.971Z,10.38
2022-09-23T18:13:59.955Z,10.57
2022-09-23T18:16:33.953Z,10.82
2022-09-23T18:19:02.002Z,10.65
2022-09-23T18:24:21.290Z,10.95
2022-09-23T18:26:45.055Z,9.82
2022-09-23T18:29:11.603Z,10.55
2022-09-23T18:31:38.905Z,9.60
2022-09-23T18:34:11.050Z,9.05
2022-09-23T18:36:37.870Z,9.80
2022-09-23T18:39:05.051Z,8.73
2022-09-23T18:41:31.516Z,9.48
2022-09-23T18:43:58.164Z,8.73
2022-09-23T18:46:28.729Z,8.55
2022-09-23T18:49:14.346Z,10.00
2022-09-23T18:51:52.496Z,9.45
2022-09-23T18:54:19.976Z,10.63
2022-09-23T18:56:47.042Z,10.75
2022-09-23T18:59:20.391Z,11.43
2022-09-23T19:01:50.057Z,11.57
2022-09-23T19:04:22.528Z,11.90
2022-09-23T19:06:52.058Z,11.57
2022-09-23T19:09:20.638Z,11.23
2022-09-23T19:11:52.011Z,12.18
2022-09-23T19:14:20.798Z,12.23
2022-09-23T19:16:49.241Z,11.57
2022-09-23T19:19:16.048Z,11.52
2022-09-23T19:21:43.068Z,11.13
2022-09-23T19:24:14.321Z,12.48
2022-09-23T19:26:41.310Z,13.50
2022-09-23T19:29:13.000Z,13.55
2022-09-23T19:31:43.524Z,15.38
2022-09-23T19:34:15.663Z,14.95
2022-09-23T19:36:44.488Z,17.45
2022-09-23T19:39:20.925Z,19.33
2022-09-23T19:41:50.701Z,19.70
2022-09-23T19:44:17.378Z,20.30
2022-09-23T19:46:45.542Z,21.52
2022-09-23T19:49:12.847Z,21.42
2022-09-23T19:51:40.110Z,21.65
2022-09-23T19:54:07.915Z,21.40
2022-09-23T19:56:35.395Z,21.88
2022-09-23T19:59:04.540Z,22.95
2022-09-23T20:01:32.076Z,22.42
2022-09-23T20:03:59.560Z,23.42
2022-09-23T20:06:30.296Z,24.27
2022-09-23T20:08:58.692Z,23.23
2022-09-23T20:11:28.556Z,23.85
2022-09-23T20:14:01.344Z,24.65
2022-09-23T20:16:32.120Z,23.65
2022-09-23T20:19:00.141Z,24.30
2022-09-23T20:21:28.378Z,26.52
2022-09-23T20:23:55.732Z,25.42
2022-09-23T20:26:40.953Z,24.55
2022-09-23T20:29:08.832Z,25.02
2022-09-23T20:31:35.571Z,24.08
2022-09-23T20:34:05.488Z,17.20
2022-09-23T20:36:33.208Z,14.48
2022-09-23T20:39:02.741Z,12.40
2022-09-23T20:41:31.232Z,11.43
2022-09-23T20:44:01.283Z,11.95
2022-09-23T20:46:28.778Z,10.48
2022-09-23T20:48:56.593Z,10.68
2022-09-23T20:51:24.623Z,11.40
2022-09-23T20:56:20.600Z,13.07
2022-09-23T21:01:18.223Z,13.25
2022-09-23T21:03:47.340Z,15.10
2022-09-23T21:06:15.809Z,14.60
2022-09-23T21:08:44.194Z,12.80
2022-09-23T21:11:13.279Z,11.60
2022-09-23T21:13:39.753Z,9.50
2022-09-23T21:16:09.665Z,8.57
2022-09-23T21:18:37.266Z,10.00
2022-09-23T21:21:05.115Z,10.85
2022-09-23T21:23:34.122Z,12.20
2022-09-23T21:26:09.482Z,11.68
2022-09-23T21:28:37.893Z,12.02
2022-09-23T21:31:07.765Z,11.60
2022-09-23T21:33:36.607Z,11.43
2022-09-23T21:36:04.618Z,10.90
2022-09-23T21:38:34.644Z,11.25
2022-09-23T21:41:02.830Z,10.93
2022-09-23T21:43:33.550Z,10.30
2022-09-23T21:46:02.689Z,10.70
2022-09-23T21:48:31.037Z,10.93
2022-09-23T21:50:59.865Z,11.07
2022-09-23T21:53:29.531Z,12.48
2022-09-23T21:56:18.062Z,11.40
2022-09-23T21:58:47.080Z,12.85
2022-09-23T22:01:20.021Z,12.65
2022-09-23T22:03:55.069Z,13.38
2022-09-23T22:06:27.409Z,14.82
2022-09-23T22:08:58.968Z,15.40
2022-09-23T22:11:46.678Z,14.13
2022-09-23T22:14:14.715Z,14.88
2022-09-23T22:19:09.250Z,17.00
2022-09-23T22:21:38.139Z,17.48
2022-09-23T22:24:08.111Z,19.13
2022-09-23T22:26:36.730Z,17.77
2022-09-23T22:29:22.834Z,18.35
2022-09-23T22:32:07.861Z,20.02
2022-09-23T22:34:51.649Z,18.75
2022-09-23T22:37:21.465Z,19.23
2022-09-23T22:39:48.024Z,20.38
2022-09-23T22:42:14.600Z,18.38
2022-09-23T22:44:41.105Z,19.02
2022-09-23T22:47:09.161Z,18.83
2022-09-23T22:52:04.041Z,17.23
2022-09-23T22:54:33.951Z,18.73
2022-09-23T22:57:03.116Z,19.30
2022-09-23T22:59:29.609Z,17.85
2022-09-23T23:01:56.077Z,17.60
2022-09-23T23:04:22.771Z,16.92
2022-09-23T23:06:49.419Z,16.25
2022-09-23T23:09:18.146Z,15.02
2022-09-23T23:11:45.302Z,15.15
2022-09-23T23:14:14.207Z,14.25
2022-09-23T23:16:40.883Z,15.55
2022-09-23T23:19:11.992Z,16.48
2022-09-23T23:21:38.509Z,13.90
2022-09-23T23:24:05.807Z,14.82
2022-09-23T23:26:34.181Z,13.68
2022-09-23T23:29:01.531Z,13.80
2022-09-23T23:31:29.325Z,15.27
2022-09-23T23:33:55.786Z,14.75
2022-09-23T23:36:23.453Z,14.05
2022-09-23T23:38:51.670Z,14.98
2022-09-23T23:41:22.778Z,14.30
2022-09-23T23:43:55.258Z,14.55
2022-09-23T23:46:26.335Z,14.95
2022-09-23T23:48:54.353Z,16.13
2022-09-23T23:51:21.155Z,15.23
2022-09-23T23:53:49.862Z,17.17
2022-09-23T23:56:21.839Z,17.02
2022-09-23T23:58:53.777Z,17.17
